Time;durP1;ratioP1;P1;durP2;ratioP2;P2;SDS_P1;SDS_P2;PMS_P1;PMS_P2;Temp;Humidity;BMP_temperature;BMP_pressure;BME280_temperature;BME280_humidity;BME280_pressure;Samples;Min_cycle;Max_cycle;Signal;HPM_P1;HPM_P2
2021/08/30 00:01:46;;;;;;;10.00;7.00;;;;;;;15.38;100.00;100964.79;110884;1203;61176;-80
2021/08/30 00:04:13;;;;;;;11.60;6.90;;;;;;;15.37;100.00;100960.77;110939;1207;71289;-79
2021/08/30 00:06:41;;;;;;;12.70;7.70;;;;;;;15.36;100.00;100960.39;110891;1205;61399;-80
2021/08/30 00:09:09;;;;;;;12.50;8.30;;;;;;;15.37;100.00;100962.45;110939;1205;61049;-80
2021/08/30 00:11:36;;;;;;;16.50;7.90;;;;;;;15.37;100.00;100959.20;110952;1207;74128;-78
2021/08/30 00:14:04;;;;;;;15.40;8.20;;;;;;;15.37;100.00;100962.04;110769;1205;71310;-80
2021/08/30 00:16:31;;;;;;;11.60;6.90;;;;;;;15.37;100.00;100964.75;110864;1205;73641;-81
2021/08/30 00:18:58;;;;;;;12.70;7.40;;;;;;;15.36;100.00;100965.02;110948;1206;61829;-79
2021/08/30 00:21:25;;;;;;;10.90;7.30;;;;;;;15.35;100.00;100968.86;110851;1199;62331;-80
2021/08/30 00:23:51;;;;;;;11.50;6.10;;;;;;;15.35;100.00;100968.08;110586;1206;61014;-80
2021/08/30 00:26:18;;;;;;;14.20;6.70;;;;;;;15.35;100.00;100968.61;110705;1205;61115;-79
2021/08/30 00:28:44;;;;;;;10.60;6.00;;;;;;;15.33;100.00;100968.44;110802;1206;61131;-79
2021/08/30 00:31:11;;;;;;;14.20;8.20;;;;;;;15.33;100.00;100968.32;110886;1203;61059;-80
2021/08/30 00:33:38;;;;;;;8.60;4.80;;;;;;;15.34;100.00;100967.98;110861;1205;61072;-80
2021/08/30 00:36:05;;;;;;;17.20;8.70;;;;;;;15.34;100.00;100971.19;110750;1205;75059;-79
2021/08/30 00:38:31;;;;;;;10.50;6.60;;;;;;;15.34;100.00;100972.71;110849;1205;71039;-81
2021/08/30 00:40:58;;;;;;;11.80;8.00;;;;;;;15.36;100.00;100966.64;110912;1205;61117;-78
2021/08/30 00:43:24;;;;;;;14.90;8.70;;;;;;;15.36;100.00;100966.48;110850;1198;61427;-78
2021/08/30 00:45:51;;;;;;;13.30;8.40;;;;;;;15.37;100.00;100972.31;110931;1199;61077;-79
2021/08/30 00:48:19;;;;;;;15.40;8.20;;;;;;;15.38;100.00;100971.36;110916;1203;61094;-80
2021/08/30 00:50:45;;;;;;;10.80;7.40;;;;;;;15.38;100.00;100971.95;110793;1198;71247;-80
2021/08/30 00:53:12;;;;;;;13.40;7.30;;;;;;;15.38;100.00;100971.91;110709;1205;61085;-79
2021/08/30 00:55:38;;;;;;;12.00;7.80;;;;;;;15.38;100.00;100971.09;110815;1198;61073;-78
2021/08/30 00:58:05;;;;;;;14.50;8.00;;;;;;;15.37;100.00;100972.05;110782;1208;61069;-80
2021/08/30 01:00:31;;;;;;;11.40;6.50;;;;;;;15.37;100.00;100974.88;110967;1203;61120;-79
2021/08/30 01:02:58;;;;;;;11.90;7.80;;;;;;;15.37;100.00;100973.52;110739;1206;70974;-79
2021/08/30 01:05:25;;;;;;;14.90;7.80;;;;;;;15.37;100.00;100975.98;110831;1205;72304;-80
2021/08/30 01:08:17;;;;;;;13.10;7.80;;;;;;;15.36;100.00;100977.86;110878;1206;62154;-79
2021/08/30 01:10:56;;;;;;;12.90;7.00;;;;;;;15.36;100.00;100976.88;110881;1205;61042;-78
2021/08/30 01:13:33;;;;;;;13.80;7.40;;;;;;;15.36;100.00;100980.91;111213;1204;75527;-78
2021/08/30 01:16:06;;;;;;;10.50;6.10;;;;;;;15.36;100.00;100985.68;110632;1206;72111;-78
2021/08/30 01:18:34;;;;;;;13.10;7.50;;;;;;;15.36;100.00;100985.55;110613;1199;72468;-79
2021/08/30 01:21:24;;;;;;;9.60;6.00;;;;;;;15.35;100.00;100985.64;111038;1207;62924;-80
2021/08/30 01:24:02;;;;;;;11.90;8.00;;;;;;;15.34;100.00;100988.14;110826;1206;61113;-79
2021/08/30 01:26:35;;;;;;;10.70;7.50;;;;;;;15.33;100.00;100991.48;110885;1205;73950;-79
2021/08/30 01:29:20;;;;;;;10.60;6.30;;;;;;;15.33;100.00;100989.36;110746;1199;71166;-78
2021/08/30 01:31:56;;;;;;;9.60;6.40;;;;;;;15.31;100.00;100988.83;110886;1206;72283;-81
2021/08/30 01:34:25;;;;;;;15.10;8.60;;;;;;;15.30;100.00;100991.70;111017;1205;62990;-79
2021/08/30 01:36:52;;;;;;;14.80;8.40;;;;;;;15.29;100.00;100992.83;111062;1205;61426;-80
2021/08/30 01:39:19;;;;;;;11.20;7.10;;;;;;;15.31;100.00;100992.29;110848;1206;75744;-78
2021/08/30 01:41:48;;;;;;;12.90;7.90;;;;;;;15.32;100.00;100989.98;110850;1205;70927;-78
2021/08/30 01:44:15;;;;;;;16.20;8.60;;;;;;;15.33;100.00;100989.08;111324;1198;72722;-80
2021/08/30 01:46:42;;;;;;;15.30;9.10;;;;;;;15.34;100.00;100987.73;111189;1206;63134;-79
2021/08/30 01:49:10;;;;;;;15.80;8.10;;;;;;;15.34;100.00;100985.41;110836;1198;61072;-79
2021/08/30 01:51:38;;;;;;;11.50;7.80;;;;;;;15.33;100.00;100981.84;110946;1205;75810;-81
2021/08/30 01:54:05;;;;;;;11.20;7.70;;;;;;;15.31;100.00;100983.94;110886;1205;72051;-81
2021/08/30 01:56:33;;;;;;;11.70;7.50;;;;;;;15.28;100.00;100984.05;110932;1205;72664;-80
2021/08/30 02:01:46;;;;;;;10.90;6.90;;;;;;;15.26;100.00;100987.16;110901;1203;61066;-80
2021/08/30 02:04:14;;;;;;;12.80;7.50;;;;;;;15.25;100.00;100985.84;111047;1198;75142;-80
2021/08/30 02:06:40;;;;;;;11.60;7.30;;;;;;;15.24;100.00;100981.23;110824;1198;61757;-78
2021/08/30 02:09:07;;;;;;;17.90;7.80;;;;;;;15.24;100.00;100983.90;110849;1202;61429;-77
2021/08/30 02:11:35;;;;;;;12.30;8.20;;;;;;;15.23;100.00;100987.61;110820;1205;61174;-80
2021/08/30 02:14:04;;;;;;;12.10;6.50;;;;;;;15.24;100.00;100984.80;110824;1205;61201;-79
2021/08/30 02:16:30;;;;;;;13.40;7.20;;;;;;;15.24;100.00;100985.76;111043;1205;74875;-80
2021/08/30 02:19:02;;;;;;;13.00;8.00;;;;;;;15.25;100.00;100988.59;110779;1205;61115;-79
2021/08/30 02:21:50;;;;;;;12.90;7.60;;;;;;;15.23;100.00;100987.23;110707;1205;72765;-78
2021/08/30 02:24:41;;;;;;;14.30;8.20;;;;;;;15.21;100.00;100988.50;110915;1198;63848;-78
2021/08/30 02:27:15;;;;;;;10.70;7.60;;;;;;;15.20;100.00;100985.45;110865;1205;61469;-78
2021/08/30 02:29:48;;;;;;;16.80;10.20;;;;;;;15.19;100.00;100988.03;110979;1197;74689;-79
2021/08/30 02:32:17;;;;;;;13.80;8.90;;;;;;;15.20;100.00;100988.88;110848;1206;72018;-78
2021/08/30 02:34:48;;;;;;;12.00;8.00;;;;;;;15.21;100.00;100993.22;111245;1199;72784;-79
2021/08/30 02:37:16;;;;;;;13.90;8.20;;;;;;;15.21;100.00;100990.34;112388;1197;62807;-79
2021/08/30 02:39:47;;;;;;;14.50;8.40;;;;;;;15.21;100.00;100986.92;111138;1205;61088;-81
2021/08/30 02:42:15;;;;;;;13.20;7.80;;;;;;;15.22;100.00;100989.10;110889;1198;75635;-79
2021/08/30 02:44:43;;;;;;;11.80;7.00;;;;;;;15.25;100.00;100990.02;110873;1205;71393;-80
2021/08/30 02:47:12;;;;;;;12.20;8.20;;;;;;;15.26;100.00;100991.27;110675;1206;73676;-80
2021/08/30 02:49:44;;;;;;;14.80;7.70;;;;;;;15.27;100.00;100990.82;110833;1198;61619;-79
2021/08/30 02:52:13;;;;;;;11.10;7.50;;;;;;;15.26;100.00;100986.47;110976;1198;61104;-79
2021/08/30 02:54:43;;;;;;;11.60;7.60;;;;;;;15.25;100.00;100983.09;110747;1205;75394;-80
2021/08/30 02:57:11;;;;;;;11.70;7.20;;;;;;;15.24;100.00;100984.09;110829;1205;72086;-80
2021/08/30 02:59:38;;;;;;;9.70;6.90;;;;;;;15.23;100.00;100985.29;110794;1205;71695;-79
2021/08/30 03:02:07;;;;;;;14.60;7.70;;;;;;;15.22;100.00;100983.03;110825;1203;62958;-80
2021/08/30 03:04:36;;;;;;;10.30;6.90;;;;;;;15.23;100.00;100984.39;111268;1198;61198;-80
2021/08/30 03:07:04;;;;;;;15.20;8.10;;;;;;;15.23;100.00;100985.25;111180;1202;75498;-80
2021/08/30 03:09:31;;;;;;;13.30;8.00;;;;;;;15.23;100.00;100980.23;111303;1205;70932;-79
2021/08/30 03:12:00;;;;;;;11.20;7.20;;;;;;;15.23;100.00;100980.64;110889;1205;73764;-78
2021/08/30 03:14:27;;;;;;;12.00;8.30;;;;;;;15.24;100.00;100981.27;110874;1197;61808;-78
2021/08/30 03:16:58;;;;;;;13.20;7.80;;;;;;;15.24;100.00;100981.23;110902;1205;61000;-78
2021/08/30 03:19:27;;;;;;;11.10;7.60;;;;;;;15.24;100.00;100979.05;110971;1205;74444;-78
2021/08/30 03:21:55;;;;;;;11.60;8.40;;;;;;;15.24;100.00;100979.75;111117;1205;70986;-79
2021/08/30 03:24:23;;;;;;;16.60;8.60;;;;;;;15.25;100.00;100978.94;110786;1203;72592;-79
2021/08/30 03:26:52;;;;;;;12.50;8.50;;;;;;;15.25;100.00;100975.73;111052;1204;61725;-79
2021/08/30 03:29:21;;;;;;;13.80;8.50;;;;;;;15.26;100.00;100976.92;111695;1198;61019;-78
2021/08/30 03:31:50;;;;;;;13.30;8.70;;;;;;;15.26;100.00;100979.35;110958;1205;74133;-79
2021/08/30 03:34:18;;;;;;;12.70;8.60;;;;;;;15.27;100.00;100976.31;110870;1205;70650;-78
2021/08/30 03:36:46;;;;;;;14.50;8.90;;;;;;;15.27;100.00;100981.52;110865;1205;72600;-81
2021/08/30 03:39:15;;;;;;;13.80;7.90;;;;;;;15.26;100.00;100983.39;110881;1203;62943;-80
2021/08/30 03:41:41;;;;;;;12.50;8.20;;;;;;;15.27;100.00;100982.48;111065;1198;61008;-78
2021/08/30 03:44:10;;;;;;;11.80;7.50;;;;;;;15.26;100.00;100983.30;110873;1205;75715;-80
2021/08/30 03:46:38;;;;;;;14.20;8.90;;;;;;;15.26;100.00;100980.09;110867;1205;71593;-80
2021/08/30 03:49:06;;;;;;;10.60;6.80;;;;;;;15.24;100.00;100980.16;111087;1199;73721;-80
2021/08/30 03:51:35;;;;;;;12.10;8.30;;;;;;;15.25;100.00;100983.05;110933;1199;62126;-80
2021/08/30 03:54:03;;;;;;;13.40;7.00;;;;;;;15.24;100.00;100985.50;110923;1201;61057;-80
2021/08/30 03:56:30;;;;;;;13.40;9.10;;;;;;;15.25;100.00;100985.19;110777;1199;76616;-81
2021/08/30 03:58:58;;;;;;;11.30;8.50;;;;;;;15.26;100.00;100985.56;110802;1205;71126;-81
2021/08/30 04:01:25;;;;;;;11.80;7.20;;;;;;;15.28;100.00;100983.75;110803;1205;74140;-81
2021/08/30 04:03:57;;;;;;;15.00;8.30;;;;;;;15.29;100.00;100987.01;110854;1197;61744;-79
2021/08/30 04:06:25;;;;;;;12.90;8.10;;;;;;;15.30;100.00;100988.29;111041;1198;62065;-79
2021/08/30 04:08:52;;;;;;;11.40;8.30;;;;;;;15.33;100.00;100987.60;110895;1205;75697;-79
2021/08/30 04:11:19;;;;;;;12.50;8.10;;;;;;;15.34;100.00;100988.67;110785;1205;70963;-79
2021/08/30 04:13:47;;;;;;;12.30;7.30;;;;;;;15.34;100.00;100987.07;110887;1206;72797;-81
2021/08/30 04:16:13;;;;;;;13.20;7.20;;;;;;;15.31;100.00;100983.65;110863;1197;62801;-79
2021/08/30 04:18:40;;;;;;;13.60;7.80;;;;;;;15.29;100.00;100986.07;110865;1205;61105;-81
2021/08/30 04:21:06;;;;;;;13.50;9.40;;;;;;;15.28;100.00;100996.02;110821;1205;61134;-81
2021/08/30 04:23:33;;;;;;;11.40;8.40;;;;;;;15.28;100.00;100995.27;110949;1203;61076;-80
2021/08/30 04:26:00;;;;;;;14.30;7.80;;;;;;;15.28;100.00;100998.48;110905;1205;73579;-79
2021/08/30 04:28:26;;;;;;;12.70;8.30;;;;;;;15.28;100.00;100999.55;110947;1205;63410;-81
2021/08/30 04:30:53;;;;;;;10.20;7.10;;;;;;;15.28;100.00;100999.80;110919;1205;61321;-81
2021/08/30 04:33:22;;;;;;;13.20;8.70;;;;;;;15.28;100.00;101001.95;110874;1197;74257;-81
2021/08/30 04:35:49;;;;;;;12.60;7.70;;;;;;;15.27;100.00;101002.10;110798;1205;73357;-81
2021/08/30 04:38:16;;;;;;;13.80;9.00;;;;;;;15.27;100.00;101002.21;111395;1205;73573;-80
2021/08/30 04:40:42;;;;;;;11.70;7.80;;;;;;;15.27;100.00;101000.66;110785;1205;62371;-80
2021/08/30 04:43:11;;;;;;;14.50;9.10;;;;;;;15.25;100.00;101004.63;110888;1205;61131;-79
2021/08/30 04:45:38;;;;;;;11.30;6.30;;;;;;;15.23;100.00;101002.69;111148;1198;76013;-81
2021/08/30 04:48:06;;;;;;;12.00;8.40;;;;;;;15.22;100.00;101002.36;110900;1206;70894;-81
2021/08/30 04:50:33;;;;;;;16.00;8.90;;;;;;;15.20;100.00;101001.52;110842;1205;74572;-82
2021/08/30 04:52:59;;;;;;;14.50;8.50;;;;;;;15.18;100.00;100999.41;110938;1207;62070;-80
2021/08/30 04:55:26;;;;;;;12.30;6.40;;;;;;;15.17;100.00;100999.61;110792;1205;60980;-82
2021/08/30 04:57:52;;;;;;;14.10;9.40;;;;;;;15.15;100.00;101003.59;110902;1205;75636;-80
2021/08/30 05:00:19;;;;;;;14.90;10.00;;;;;;;15.14;100.00;101000.22;110862;1205;61104;-81
2021/08/30 05:02:46;;;;;;;13.50;8.30;;;;;;;15.14;100.00;101000.30;110859;1205;72469;-80
2021/08/30 05:05:12;;;;;;;13.20;8.60;;;;;;;15.15;100.00;101002.77;110944;1205;61627;-80
2021/08/30 05:07:42;;;;;;;16.90;9.60;;;;;;;15.16;100.00;101007.92;110993;1203;61734;-81
2021/08/30 05:10:09;;;;;;;17.10;10.40;;;;;;;15.16;100.00;101006.48;110953;1205;74815;-80
2021/08/30 05:12:35;;;;;;;14.50;8.70;;;;;;;15.16;100.00;101007.59;112339;1198;71896;-81
2021/08/30 05:15:02;;;;;;;12.30;8.90;;;;;;;15.16;100.00;101009.31;114139;1203;59946;-81
2021/08/30 05:17:29;;;;;;;16.60;10.20;;;;;;;15.17;100.00;101009.89;114145;1198;61926;-80
2021/08/30 05:19:55;;;;;;;12.30;8.70;;;;;;;15.20;100.00;101011.88;112984;1198;59167;-82
2021/08/30 05:22:22;;;;;;;13.80;9.50;;;;;;;15.22;100.00;101013.54;110825;1205;61127;-88
2021/08/30 05:24:49;;;;;;;13.90;9.60;;;;;;;15.26;100.00;101016.23;110932;1206;72336;-83
2021/08/30 05:27:16;;;;;;;14.50;9.40;;;;;;;15.28;100.00;101017.85;110758;1205;72638;-77
2021/08/30 05:29:43;;;;;;;12.90;8.40;;;;;;;15.30;100.00;101016.58;110622;1205;61692;-77
2021/08/30 05:32:09;;;;;;;16.70;10.70;;;;;;;15.33;100.00;101020.58;110621;1205;61036;-77
2021/08/30 05:34:36;;;;;;;15.20;9.60;;;;;;;15.34;100.00;101017.87;110619;1205;62246;-75
2021/08/30 05:37:02;;;;;;;13.60;9.20;;;;;;;15.35;100.00;101019.35;110617;1205;61105;-78
2021/08/30 05:39:29;;;;;;;18.50;11.30;;;;;;;15.34;100.00;101018.81;110614;1206;72764;-76
2021/08/30 05:41:55;;;;;;;15.50;9.00;;;;;;;15.33;100.00;101020.17;110521;1205;61071;-73
2021/08/30 05:44:22;;;;;;;13.10;8.80;;;;;;;15.33;100.00;101024.94;110573;1198;61070;-73
2021/08/30 05:46:50;;;;;;;19.20;11.80;;;;;;;15.35;100.00;101024.34;110540;1205;61066;-74
2021/08/30 05:49:16;;;;;;;13.30;8.20;;;;;;;15.37;100.00;101027.50;112995;1198;71713;-75
2021/08/30 05:51:43;;;;;;;15.40;8.90;;;;;;;15.38;100.00;101029.16;110568;1205;61016;-74
2021/08/30 05:54:09;;;;;;;13.00;8.40;;;;;;;15.37;100.00;101032.45;110598;1205;61174;-75
2021/08/30 05:56:36;;;;;;;13.60;8.60;;;;;;;15.37;100.00;101030.64;110607;1206;60987;-74
2021/08/30 05:59:02;;;;;;;13.10;8.20;;;;;;;15.38;100.00;101034.59;110613;1197;61098;-76
2021/08/30 06:01:29;;;;;;;12.50;7.70;;;;;;;15.41;100.00;101031.02;110635;1205;61175;-72
2021/08/30 06:03:56;;;;;;;12.20;8.60;;;;;;;15.44;100.00;101034.01;110825;1205;71501;-74
2021/08/30 06:06:23;;;;;;;13.80;8.10;;;;;;;15.49;100.00;101036.55;110572;1205;62650;-74
2021/08/30 06:08:49;;;;;;;11.30;7.30;;;;;;;15.53;100.00;101034.73;110576;1199;61672;-73
2021/08/30 06:11:16;;;;;;;13.10;8.20;;;;;;;15.55;100.00;101030.84;110596;1205;61057;-73
2021/08/30 06:13:42;;;;;;;12.70;7.40;;;;;;;15.57;100.00;101032.79;110607;1205;61043;-74
2021/08/30 06:16:09;;;;;;;10.70;7.00;;;;;;;15.60;100.00;101034.89;110648;1207;61065;-74
2021/08/30 06:18:36;;;;;;;11.60;6.60;;;;;;;15.63;100.00;101036.25;112537;1199;61060;-74
2021/08/30 06:21:02;;;;;;;9.10;5.60;;;;;;;15.67;100.00;101033.92;110671;1205;61170;-73
2021/08/30 06:23:30;;;;;;;15.00;8.30;;;;;;;15.71;99.58;101035.89;110697;1205;73552;-73
2021/08/30 06:25:59;;;;;;;10.10;7.30;;;;;;;15.75;99.74;101039.17;110747;1206;72028;-73
2021/08/30 06:28:27;;;;;;;11.80;6.70;;;;;;;15.80;99.66;101038.17;110778;1206;73793;-76
2021/08/30 06:30:54;;;;;;;10.70;5.60;;;;;;;15.83;98.81;101034.92;110743;1205;62929;-74
2021/08/30 06:33:21;;;;;;;11.00;6.50;;;;;;;15.86;98.47;101040.73;110766;1205;61118;-74
2021/08/30 06:35:47;;;;;;;11.20;7.10;;;;;;;15.89;98.23;101037.45;110739;1206;75760;-77
2021/08/30 06:38:15;;;;;;;13.70;7.60;;;;;;;15.96;98.52;101039.31;110738;1205;72016;-74
2021/08/30 06:40:42;;;;;;;10.00;6.10;;;;;;;16.04;98.33;101035.55;110719;1205;73593;-73
2021/08/30 06:43:08;;;;;;;13.70;8.80;;;;;;;16.09;97.93;101036.47;110734;1205;62864;-75
2021/08/30 06:45:39;;;;;;;11.10;6.90;;;;;;;16.10;97.47;101037.87;110753;1205;62327;-74
2021/08/30 06:48:05;;;;;;;13.80;7.50;;;;;;;16.12;96.90;101035.94;110757;1205;74599;-74
2021/08/30 06:50:32;;;;;;;17.90;9.30;;;;;;;16.15;96.81;101034.67;110703;1205;61094;-75
2021/08/30 06:52:58;;;;;;;12.10;7.80;;;;;;;16.23;96.79;101031.50;110714;1198;73453;-74
2021/08/30 06:55:25;;;;;;;10.90;6.60;;;;;;;16.34;96.70;101032.30;110769;1204;61149;-75
2021/08/30 06:57:51;;;;;;;9.90;6.70;;;;;;;16.47;96.15;101024.48;110831;1204;61069;-75
2021/08/30 07:00:18;;;;;;;11.40;7.20;;;;;;;16.58;95.78;101026.92;110756;1205;74797;-73
2021/08/30 07:02:45;;;;;;;15.50;9.70;;;;;;;16.64;95.05;101031.40;110709;1205;70963;-73
2021/08/30 07:05:12;;;;;;;8.60;5.80;;;;;;;16.66;94.53;101031.94;110677;1205;72341;-74
2021/08/30 07:07:39;;;;;;;20.30;9.20;;;;;;;16.65;94.37;101033.09;110584;1205;62046;-73
2021/08/30 07:10:06;;;;;;;10.00;6.40;;;;;;;16.64;94.47;101037.33;110676;1205;61018;-74
2021/08/30 07:12:33;;;;;;;10.20;6.30;;;;;;;16.63;94.21;101037.55;110746;1205;75473;-74
2021/08/30 07:14:59;;;;;;;10.90;5.70;;;;;;;16.63;94.12;101037.41;110552;1205;69779;-74
2021/08/30 07:17:26;;;;;;;9.00;6.60;;;;;;;16.64;94.03;101035.15;110568;1205;61010;-74
2021/08/30 07:19:52;;;;;;;10.70;7.00;;;;;;;16.65;93.85;101036.42;110682;1206;61104;-80
2021/08/30 07:22:19;;;;;;;7.70;6.10;;;;;;;16.61;93.88;101034.29;110761;1205;61230;-75
2021/08/30 07:24:46;;;;;;;11.20;7.10;;;;;;;16.55;94.26;101038.08;110875;1205;75747;-74
2021/08/30 07:27:13;;;;;;;10.50;6.50;;;;;;;16.46;94.62;101045.62;110578;1205;71919;-75
2021/08/30 07:29:39;;;;;;;7.00;5.40;;;;;;;16.42;95.19;101047.30;110666;1205;73792;-75
2021/08/30 07:32:06;;;;;;;48.30;25.20;;;;;;;16.34;94.91;101050.30;110612;1206;61089;-74
2021/08/30 07:34:33;;;;;;;16.70;9.60;;;;;;;16.33;95.22;101050.14;110975;1204;61227;-75
2021/08/30 07:37:00;;;;;;;39.90;20.20;;;;;;;16.34;95.46;101049.67;110901;1205;75111;-74
2021/08/30 07:39:26;;;;;;;12.60;7.00;;;;;;;16.32;95.37;101048.98;111656;1204;71938;-74
2021/08/30 07:41:53;;;;;;;7.80;5.30;;;;;;;16.38;95.78;101052.45;110854;1205;73710;-73
2021/08/30 07:44:21;;;;;;;9.90;7.30;;;;;;;16.48;95.65;101054.30;110987;1205;61983;-76
2021/08/30 07:46:48;;;;;;;9.10;6.70;;;;;;;16.60;95.40;101055.71;111082;1198;61204;-73
2021/08/30 07:49:15;;;;;;;9.50;7.10;;;;;;;16.74;95.32;101060.21;110845;1206;74521;-74
2021/08/30 07:51:43;;;;;;;14.80;9.90;;;;;;;16.86;95.21;101060.15;110845;1205;70966;-72
2021/08/30 07:54:10;;;;;;;8.80;6.20;;;;;;;16.99;94.70;101059.84;110971;1205;71722;-74
2021/08/30 07:56:38;;;;;;;7.90;5.10;;;;;;;17.10;94.37;101061.84;110692;1205;62799;-73
2021/08/30 07:59:06;;;;;;;9.50;6.40;;;;;;;17.20;93.22;101063.43;111185;1204;61798;-73
2021/08/30 08:01:32;;;;;;;17.90;8.10;;;;;;;17.27;93.36;101064.41;110704;1205;74601;-73
2021/08/30 08:03:59;;;;;;;11.30;7.10;;;;;;;17.34;92.34;101063.07;110709;1205;71767;-73
2021/08/30 08:06:26;;;;;;;11.00;6.50;;;;;;;17.40;91.52;101065.86;110771;1206;61074;-73
2021/08/30 08:08:53;;;;;;;9.80;6.20;;;;;;;17.45;91.74;101073.08;110730;1198;61868;-73
2021/08/30 08:11:20;;;;;;;9.60;5.60;;;;;;;17.43;91.33;101074.73;110759;1205;61040;-73
2021/08/30 08:13:46;;;;;;;12.90;7.60;;;;;;;17.45;91.57;101080.04;110920;1205;75561;-72
2021/08/30 08:16:14;;;;;;;12.20;8.50;;;;;;;17.47;91.08;101078.38;110798;1206;61068;-74
2021/08/30 08:18:40;;;;;;;12.10;6.50;;;;;;;17.45;90.04;101076.77;111039;1205;73542;-74
2021/08/30 08:21:07;;;;;;;8.00;5.80;;;;;;;17.39;88.94;101075.48;110843;1205;62862;-73
2021/08/30 08:23:36;;;;;;;7.30;5.10;;;;;;;17.39;89.39;101083.64;110794;1205;61175;-72
2021/08/30 08:26:03;;;;;;;20.20;12.50;;;;;;;17.41;89.25;101081.83;110955;1205;74623;-74
2021/08/30 08:28:29;;;;;;;9.60;6.70;;;;;;;17.46;89.20;101080.52;110840;1205;70974;-73
2021/08/30 08:30:56;;;;;;;9.80;5.40;;;;;;;17.50;88.20;101077.91;110826;1204;73607;-73
2021/08/30 08:33:23;;;;;;;10.90;6.30;;;;;;;17.50;87.24;101080.06;110559;1203;61092;-74
2021/08/30 08:35:49;;;;;;;15.50;8.20;;;;;;;17.52;87.30;101074.23;110554;1206;61491;-73
2021/08/30 08:38:15;;;;;;;22.40;14.70;;;;;;;17.59;87.14;101077.11;110688;1204;61142;-73
2021/08/30 08:40:42;;;;;;;15.50;9.80;;;;;;;17.78;85.97;101078.32;110776;1204;61104;-75
2021/08/30 08:43:13;;;;;;;16.90;9.90;;;;;;;17.98;85.08;101081.14;110657;1205;61140;-74
2021/08/30 08:45:44;;;;;;;7.30;5.00;;;;;;;18.09;83.60;101081.77;110719;1205;61091;-74
2021/08/30 08:48:11;;;;;;;13.40;7.70;;;;;;;18.13;81.85;101084.93;110729;1204;61140;-74
2021/08/30 08:50:38;;;;;;;11.20;6.60;;;;;;;18.18;80.76;101082.80;110608;1205;74494;-72
2021/08/30 08:53:08;;;;;;;6.60;4.10;;;;;;;18.25;80.88;101085.19;110698;1205;69746;-73
2021/08/30 08:55:34;;;;;;;5.00;3.60;;;;;;;18.31;80.53;101085.56;110719;1204;71607;-74
2021/08/30 08:58:13;;;;;;;15.50;8.50;;;;;;;18.41;81.35;101088.52;110672;1205;61153;-72
2021/08/30 09:00:42;;;;;;;10.00;6.50;;;;;;;18.40;80.59;101087.54;110830;1204;61114;-73
2021/08/30 09:03:17;;;;;;;7.20;4.30;;;;;;;18.30;81.09;101085.70;110857;1206;73442;-74
2021/08/30 09:05:44;;;;;;;;;;;;;;;18.22;81.51;101090.62;110733;1204;71020;-75
2021/08/30 09:08:32;;;;;;;7.30;4.60;;;;;;;18.16;80.21;101088.11;110598;1204;61091;-73
2021/08/30 09:10:59;;;;;;;6.70;4.20;;;;;;;18.20;79.32;101082.73;110808;1205;61065;-74
2021/08/30 09:13:30;;;;;;;5.90;3.70;;;;;;;18.22;77.63;101086.05;110659;1205;61082;-72
2021/08/30 09:15:58;;;;;;;6.10;3.30;;;;;;;18.30;76.89;101092.39;110631;1204;75526;-73
2021/08/30 09:18:28;;;;;;;6.60;4.50;;;;;;;18.54;78.22;101096.16;110882;1204;72134;-73
2021/08/30 09:21:10;;;;;;;21.10;10.60;;;;;;;18.81;78.18;101091.46;110728;1205;72688;-74
2021/08/30 09:23:39;;;;;;;3.80;3.00;;;;;;;18.98;76.65;101088.95;110580;1200;62263;-74
2021/08/30 09:26:06;;;;;;;5.70;3.60;;;;;;;19.04;76.26;101091.27;110675;1205;61324;-74
2021/08/30 09:28:35;;;;;;;15.30;6.50;;;;;;;18.98;75.37;101088.80;110549;1205;74724;-73
2021/08/30 09:31:02;;;;;;;6.40;3.90;;;;;;;18.87;75.45;101087.69;110753;1204;71846;-73
2021/08/30 09:33:29;;;;;;;5.90;4.00;;;;;;;18.72;75.65;101086.58;110633;1205;73630;-72
2021/08/30 09:35:57;;;;;;;6.00;2.90;;;;;;;18.58;76.23;101090.09;110647;1204;61126;-72
2021/08/30 09:38:25;;;;;;;6.30;4.00;;;;;;;18.43;76.98;101089.00;110755;1197;61434;-73
2021/08/30 09:40:51;;;;;;;6.00;3.10;;;;;;;18.31;77.60;101092.05;110584;1205;75920;-74
2021/08/30 09:43:21;;;;;;;8.30;5.20;;;;;;;18.21;78.10;101090.74;110583;1205;72117;-74
2021/08/30 09:45:47;;;;;;;43.60;23.30;;;;;;;18.13;78.12;101091.27;110780;1205;71660;-74
2021/08/30 09:48:24;;;;;;;5.80;4.20;;;;;;;18.06;78.42;101097.14;110628;1205;61399;-74
2021/08/30 09:50:51;;;;;;;8.30;3.20;;;;;;;18.10;79.40;101096.39;110827;1205;61080;-74
2021/08/30 09:53:17;;;;;;;13.10;8.10;;;;;;;18.17;78.22;101097.06;110729;1205;61787;-73
2021/08/30 09:55:44;;;;;;;7.90;4.10;;;;;;;18.30;78.44;101098.34;110649;1197;61094;-74
2021/08/30 09:58:14;;;;;;;55.80;29.20;;;;;;;18.44;78.27;101095.07;110953;1197;72692;-72
2021/08/30 10:00:43;;;;;;;6.30;3.20;;;;;;;18.53;78.17;101095.55;110804;1198;61175;-72
2021/08/30 10:03:12;;;;;;;20.90;10.60;;;;;;;18.54;76.41;101094.58;110617;1205;61350;-73
2021/08/30 10:05:38;;;;;;;6.10;4.00;;;;;;;18.53;76.33;101097.73;110582;1205;73567;-75
2021/08/30 10:08:05;;;;;;;7.20;4.30;;;;;;;18.55;75.96;101093.98;110615;1204;71987;-74
2021/08/30 10:10:32;;;;;;;5.00;3.30;;;;;;;18.60;75.97;101094.95;110769;1205;72376;-74
2021/08/30 10:13:00;;;;;;;6.20;3.60;;;;;;;18.66;75.49;101095.70;110560;1205;61511;-74
2021/08/30 10:15:28;;;;;;;4.70;3.60;;;;;;;18.75;74.60;101098.85;110670;1205;61069;-75
2021/08/30 10:17:57;;;;;;;4.40;3.20;;;;;;;18.98;74.85;101093.55;110535;1205;75749;-74
2021/08/30 10:20:28;;;;;;;5.30;3.40;;;;;;;19.21;74.75;101094.54;110803;1204;70477;-75
2021/08/30 10:23:21;;;;;;;4.60;2.80;;;;;;;19.47;74.95;101094.29;110632;1204;73815;-75
2021/08/30 10:26:01;;;;;;;6.10;3.40;;;;;;;19.64;72.57;101092.20;110872;1205;61060;-75
2021/08/30 10:28:44;;;;;;;5.60;3.60;;;;;;;19.61;72.06;101091.90;110815;1205;61105;-74
2021/08/30 10:31:20;;;;;;;4.50;2.90;;;;;;;19.52;71.80;101096.98;110905;1205;75627;-75
2021/08/30 10:33:52;;;;;;;163.90;89.10;;;;;;;19.42;72.57;101091.65;110765;1204;71945;-76
2021/08/30 10:36:21;;;;;;;34.30;19.20;;;;;;;19.29;73.23;101093.21;110659;1197;72717;-74
2021/08/30 10:39:03;;;;;;;6.30;3.50;;;;;;;19.10;73.58;101094.43;110505;1206;61416;-74
2021/08/30 10:41:38;;;;;;;8.90;3.70;;;;;;;18.89;74.15;101099.30;110565;1205;61201;-74
2021/08/30 10:44:19;;;;;;;15.40;8.60;;;;;;;18.71;75.07;101102.14;110694;1205;74546;-74
2021/08/30 10:46:53;;;;;;;6.00;3.10;;;;;;;18.59;75.96;101104.05;110775;1198;70930;-74
2021/08/30 10:49:26;;;;;;;6.00;3.80;;;;;;;18.50;75.68;101103.39;110612;1205;73201;-74
2021/08/30 10:52:05;;;;;;;4.60;3.50;;;;;;;18.44;76.19;101103.70;110763;1204;61311;-73
2021/08/30 10:54:32;;;;;;;6.70;4.20;;;;;;;18.36;76.33;101101.98;110633;1205;61109;-74
2021/08/30 10:57:02;;;;;;;5.00;3.60;;;;;;;18.27;76.34;101106.95;110559;1204;74482;-74
2021/08/30 10:59:30;;;;;;;4.60;3.30;;;;;;;18.17;76.10;101110.29;110606;1205;71090;-73
2021/08/30 11:02:04;;;;;;;6.70;4.40;;;;;;;18.07;76.96;101109.05;110821;1204;73630;-74
2021/08/30 11:04:34;;;;;;;6.70;4.30;;;;;;;17.97;78.13;101112.44;110570;1205;61482;-74
2021/08/30 11:07:02;;;;;;;7.00;3.80;;;;;;;17.94;78.97;101110.80;110609;1205;61157;-73
2021/08/30 11:09:30;;;;;;;5.20;3.60;;;;;;;17.98;79.30;101106.90;110589;1204;75877;-74
2021/08/30 11:12:14;;;;;;;6.60;4.40;;;;;;;18.03;79.69;101112.09;110680;1205;72050;-73
2021/08/30 11:14:40;;;;;;;8.80;4.40;;;;;;;18.05;80.05;101108.73;110729;1204;72661;-74
2021/08/30 11:17:13;;;;;;;5.30;3.90;;;;;;;18.05;80.16;101112.58;110598;1205;61127;-74